sensor_id;sensor_type;location;lat;lon;timestamp;pressure;altitude;pressure_sealevel;temperature;humidity
10940;BME280;5522;42.696;23.494;2023-01-01T00:00:38;53735.19;;;-139.68;100.00
10940;BME280;5522;42.696;23.494;2023-01-01T00:03:05;53721.13;;;-139.68;100.00
10940;BME280;5522;42.696;23.494;2023-01-01T00:05:33;53701.03;;;-139.68;100.00
10940;BME280;5522;42.696;23.494;2023-01-01T00:08:04;53717.13;;;-139.68;100.00
10940;BME280;5522;42.696;23.494;2023-01-01T00:10:32;53721.13;;;-139.68;100.00
10940;BME280;5522;42.696;23.494;2023-01-01T00:13:01;53711.09;;;-139.68;100.00
10940;BME280;5522;42.696;23.494;2023-01-01T00:15:28;53735.19;;;-139.68;100.00
10940;BME280;5522;42.696;23.494;2023-01-01T00:17:55;53693.00;;;-139.68;100.00
10940;BME280;5522;42.696;23.494;2023-01-01T00:20:22;53707.06;;;-139.68;100.00
10940;BME280;5522;42.696;23.494;2023-01-01T00:22:50;53739.22;;;-139.68;100.00
10940;BME280;5522;42.696;23.494;2023-01-01T00:25:18;53743.25;;;-139.68;100.00
10940;BME280;5522;42.696;23.494;2023-01-01T00:27:47;53767.38;;;-139.68;100.00
10940;BME280;5522;42.696;23.494;2023-01-01T00:30:13;53747.25;;;-139.68;100.00
10940;BME280;5522;42.696;23.494;2023-01-01T00:32:40;53731.19;;;-139.68;100.00
10940;BME280;5522;42.696;23.494;2023-01-01T00:35:08;53711.09;;;-139.68;100.00
10940;BME280;5522;42.696;23.494;2023-01-01T00:37:35;53723.13;;;-139.68;100.00
10940;BME280;5522;42.696;23.494;2023-01-01T00:40:02;53719.13;;;-139.68;100.00
10940;BME280;5522;42.696;23.494;2023-01-01T00:42:33;53705.06;;;-139.68;100.00
10940;BME280;5522;42.696;23.494;2023-01-01T00:45:05;53711.09;;;-139.68;100.00
10940;BME280;5522;42.696;23.494;2023-01-01T00:47:32;53711.09;;;-139.68;100.00
10940;BME280;5522;42.696;23.494;2023-01-01T00:49:59;53705.06;;;-139.68;100.00
10940;BME280;5522;42.696;23.494;2023-01-01T00:52:26;53705.06;;;-139.68;100.00
10940;BME280;5522;42.696;23.494;2023-01-01T00:54:53;53707.06;;;-139.68;100.00
10940;BME280;5522;42.696;23.494;2023-01-01T00:57:20;53725.16;;;-139.68;100.00
10940;BME280;5522;42.696;23.494;2023-01-01T00:59:48;53727.16;;;-139.68;100.00
10940;BME280;5522;42.696;23.494;2023-01-01T01:02:15;53676.91;;;-139.68;100.00
10940;BME280;5522;42.696;23.494;2023-01-01T01:04:42;53715.09;;;-139.68;100.00
10940;BME280;5522;42.696;23.494;2023-01-01T01:07:08;53670.88;;;-139.68;100.00
10940;BME280;5522;42.696;23.494;2023-01-01T01:09:35;53723.13;;;-139.68;100.00
10940;BME280;5522;42.696;23.494;2023-01-01T01:12:02;53719.13;;;-139.68;100.00
10940;BME280;5522;42.696;23.494;2023-01-01T01:14:29;53707.06;;;-139.68;100.00
10940;BME280;5522;42.696;23.494;2023-01-01T01:16:57;53690.97;;;-139.68;100.00
10940;BME280;5522;42.696;23.494;2023-01-01T01:19:26;53747.25;;;-139.68;100.00
10940;BME280;5522;42.696;23.494;2023-01-01T01:21:53;53699.03;;;-139.68;100.00
10940;BME280;5522;42.696;23.494;2023-01-01T01:24:20;53727.16;;;-139.68;100.00
10940;BME280;5522;42.696;23.494;2023-01-01T01:26:47;53701.03;;;-139.68;100.00
10940;BME280;5522;42.696;23.494;2023-01-01T01:29:13;53763.34;;;-139.68;100.00
10940;BME280;5522;42.696;23.494;2023-01-01T01:31:42;53731.19;;;-139.68;100.00
10940;BME280;5522;42.696;23.494;2023-01-01T01:34:10;53707.06;;;-139.68;100.00
10940;BME280;5522;42.696;23.494;2023-01-01T01:36:37;53690.97;;;-139.68;100.00
10940;BME280;5522;42.696;23.494;2023-01-01T01:39:07;53747.25;;;-139.68;100.00
10940;BME280;5522;42.696;23.494;2023-01-01T01:41:36;53719.13;;;-139.68;100.00
10940;BME280;5522;42.696;23.494;2023-01-01T01:46:53;53773.41;;;-139.68;100.00
10940;BME280;5522;42.696;23.494;2023-01-01T01:49:29;53705.06;;;-139.68;100.00
10940;BME280;5522;42.696;23.494;2023-01-01T01:51:58;53747.25;;;-139.68;100.00
10940;BME280;5522;42.696;23.494;2023-01-01T01:54:26;53682.94;;;-139.68;100.00
10940;BME280;5522;42.696;23.494;2023-01-01T01:56:57;53731.19;;;-139.68;100.00
10940;BME280;5522;42.696;23.494;2023-01-01T01:59:29;53699.03;;;-139.68;100.00
10940;BME280;5522;42.696;23.494;2023-01-01T02:01:58;53707.06;;;-139.68;100.00
10940;BME280;5522;42.696;23.494;2023-01-01T02:04:26;53684.94;;;-139.68;100.00
10940;BME280;5522;42.696;23.494;2023-01-01T02:06:54;53699.03;;;-139.68;100.00
10940;BME280;5522;42.696;23.494;2023-01-01T02:09:21;53731.19;;;-139.68;100.00
10940;BME280;5522;42.696;23.494;2023-01-01T02:11:48;53707.06;;;-139.68;100.00
10940;BME280;5522;42.696;23.494;2023-01-01T02:14:15;53713.09;;;-139.68;100.00
10940;BME280;5522;42.696;23.494;2023-01-01T02:16:46;53745.25;;;-139.68;100.00
10940;BME280;5522;42.696;23.494;2023-01-01T02:19:21;53719.13;;;-139.68;100.00
10940;BME280;5522;42.696;23.494;2023-01-01T02:22:01;53699.03;;;-139.68;100.00
10940;BME280;5522;42.696;23.494;2023-01-01T02:24:47;53775.41;;;-139.68;100.00
10940;BME280;5522;42.696;23.494;2023-01-01T02:27:20;53711.09;;;-139.68;100.00
10940;BME280;5522;42.696;23.494;2023-01-01T02:29:56;53717.13;;;-139.68;100.00
10940;BME280;5522;42.696;23.494;2023-01-01T02:32:26;53729.16;;;-139.68;100.00
10940;BME280;5522;42.696;23.494;2023-01-01T02:35:00;53725.16;;;-139.68;100.00
10940;BME280;5522;42.696;23.494;2023-01-01T02:37:52;53723.13;;;-139.68;100.00
10940;BME280;5522;42.696;23.494;2023-01-01T02:40:23;53654.78;;;-139.68;100.00
10940;BME280;5522;42.696;23.494;2023-01-01T02:42:57;53697.00;;;-139.68;100.00
10940;BME280;5522;42.696;23.494;2023-01-01T02:45:26;53699.03;;;-139.68;100.00
10940;BME280;5522;42.696;23.494;2023-01-01T02:47:52;53737.22;;;-139.68;100.00
10940;BME280;5522;42.696;23.494;2023-01-01T02:50:21;53678.91;;;-139.68;100.00
10940;BME280;5522;42.696;23.494;2023-01-01T02:53:04;53697.00;;;-139.68;100.00
10940;BME280;5522;42.696;23.494;2023-01-01T02:55:45;53721.13;;;-139.68;100.00
10940;BME280;5522;42.696;23.494;2023-01-01T02:58:21;53719.13;;;-139.68;100.00
10940;BME280;5522;42.696;23.494;2023-01-01T03:01:14;53751.28;;;-139.68;100.00
10940;BME280;5522;42.696;23.494;2023-01-01T03:03:53;53727.16;;;-139.68;100.00
10940;BME280;5522;42.696;23.494;2023-01-01T03:06:28;53715.09;;;-139.68;100.00
10940;BME280;5522;42.696;23.494;2023-01-01T03:09:04;53745.25;;;-139.68;100.00
10940;BME280;5522;42.696;23.494;2023-01-01T03:11:43;53674.91;;;-139.68;100.00
10940;BME280;5522;42.696;23.494;2023-01-01T03:14:19;53709.06;;;-139.68;100.00
10940;BME280;5522;42.696;23.494;2023-01-01T03:16:50;53713.09;;;-139.68;100.00
10940;BME280;5522;42.696;23.494;2023-01-01T03:19:22;53680.94;;;-139.68;100.00
10940;BME280;5522;42.696;23.494;2023-01-01T03:21:54;53723.13;;;-139.68;100.00
10940;BME280;5522;42.696;23.494;2023-01-01T03:24:25;53759.31;;;-139.68;100.00
10940;BME280;5522;42.696;23.494;2023-01-01T03:26:55;53674.91;;;-139.68;100.00
10940;BME280;5522;42.696;23.494;2023-01-01T03:29:26;53707.06;;;-139.68;100.00
10940;BME280;5522;42.696;23.494;2023-01-01T03:31:59;53755.31;;;-139.68;100.00
10940;BME280;5522;42.696;23.494;2023-01-01T03:34:32;53723.13;;;-139.68;100.00
10940;BME280;5522;42.696;23.494;2023-01-01T03:37:04;53761.34;;;-139.68;100.00
10940;BME280;5522;42.696;23.494;2023-01-01T03:39:35;53743.25;;;-139.68;100.00
10940;BME280;5522;42.696;23.494;2023-01-01T03:42:13;53737.22;;;-139.68;100.00
10940;BME280;5522;42.696;23.494;2023-01-01T03:44:45;53731.19;;;-139.68;100.00
10940;BME280;5522;42.696;23.494;2023-01-01T03:47:15;53719.13;;;-139.68;100.00
10940;BME280;5522;42.696;23.494;2023-01-01T03:49:44;53680.94;;;-139.68;100.00
10940;BME280;5522;42.696;23.494;2023-01-01T03:52:22;53670.88;;;-139.68;100.00
10940;BME280;5522;42.696;23.494;2023-01-01T03:54:56;53779.44;;;-139.68;100.00
10940;BME280;5522;42.696;23.494;2023-01-01T03:57:34;53705.06;;;-139.68;100.00
10940;BME280;5522;42.696;23.494;2023-01-01T04:00:06;53737.22;;;-139.68;100.00
10940;BME280;5522;42.696;23.494;2023-01-01T04:02:39;53690.97;;;-139.68;100.00
10940;BME280;5522;42.696;23.494;2023-01-01T04:05:08;53670.88;;;-139.68;100.00
10940;BME280;5522;42.696;23.494;2023-01-01T04:07:35;53731.19;;;-139.68;100.00
10940;BME280;5522;42.696;23.494;2023-01-01T04:10:05;53729.16;;;-139.68;100.00
10940;BME280;5522;42.696;23.494;2023-01-01T04:12:43;53715.09;;;-139.68;100.00
10940;BME280;5522;42.696;23.494;2023-01-01T04:15:10;53717.13;;;-139.68;100.00
10940;BME280;5522;42.696;23.494;2023-01-01T04:17:39;53703.03;;;-139.68;100.00
10940;BME280;5522;42.696;23.494;2023-01-01T04:20:07;53682.94;;;-139.68;100.00
10940;BME280;5522;42.696;23.494;2023-01-01T04:22:34;53705.06;;;-139.68;100.00
10940;BME280;5522;42.696;23.494;2023-01-01T04:25:04;53713.09;;;-139.68;100.00
10940;BME280;5522;42.696;23.494;2023-01-01T04:27:33;53695.00;;;-139.68;100.00
10940;BME280;5522;42.696;23.494;2023-01-01T04:30:00;53672.88;;;-139.68;100.00
10940;BME280;5522;42.696;23.494;2023-01-01T04:32:29;53676.91;;;-139.68;100.00
10940;BME280;5522;42.696;23.494;2023-01-01T04:35:00;53678.91;;;-139.68;100.00
10940;BME280;5522;42.696;23.494;2023-01-01T04:37:33;53699.03;;;-139.68;100.00
10940;BME280;5522;42.696;23.494;2023-01-01T04:40:05;53735.19;;;-139.68;100.00
10940;BME280;5522;42.696;23.494;2023-01-01T04:42:34;53707.06;;;-139.68;100.00
10940;BME280;5522;42.696;23.494;2023-01-01T04:45:01;53713.09;;;-139.68;100.00
10940;BME280;5522;42.696;23.494;2023-01-01T04:47:32;53707.06;;;-139.68;100.00
10940;BME280;5522;42.696;23.494;2023-01-01T04:50:05;53693.00;;;-139.68;100.00
10940;BME280;5522;42.696;23.494;2023-01-01T04:52:32;53656.81;;;-139.68;100.00
10940;BME280;5522;42.696;23.494;2023-01-01T04:54:59;53701.03;;;-139.68;100.00
10940;BME280;5522;42.696;23.494;2023-01-01T04:57:28;53701.03;;;-139.68;100.00
10940;BME280;5522;42.696;23.494;2023-01-01T04:59:55;53695.00;;;-139.68;100.00
10940;BME280;5522;42.696;23.494;2023-01-01T05:02:21;53688.97;;;-139.68;100.00
10940;BME280;5522;42.696;23.494;2023-01-01T05:04:48;53731.19;;;-139.68;100.00
10940;BME280;5522;42.696;23.494;2023-01-01T05:07:17;53703.03;;;-139.68;100.00
10940;BME280;5522;42.696;23.494;2023-01-01T05:09:43;53719.13;;;-139.68;100.00
10940;BME280;5522;42.696;23.494;2023-01-01T05:12:10;53690.97;;;-139.68;100.00
10940;BME280;5522;42.696;23.494;2023-01-01T05:14:37;53686.97;;;-139.68;100.00
10940;BME280;5522;42.696;23.494;2023-01-01T05:17:04;53715.09;;;-139.68;100.00
10940;BME280;5522;42.696;23.494;2023-01-01T05:19:31;53646.75;;;-139.68;100.00
10940;BME280;5522;42.696;23.494;2023-01-01T05:21:58;53703.03;;;-139.68;100.00
10940;BME280;5522;42.696;23.494;2023-01-01T05:24:26;53686.97;;;-139.68;100.00
10940;BME280;5522;42.696;23.494;2023-01-01T05:26:53;53686.97;;;-139.68;100.00
10940;BME280;5522;42.696;23.494;2023-01-01T05:29:21;53695.00;;;-139.68;100.00
10940;BME280;5522;42.696;23.494;2023-01-01T05:31:48;53727.16;;;-139.68;100.00
10940;BME280;5522;42.696;23.494;2023-01-01T05:34:15;53699.03;;;-139.68;100.00
10940;BME280;5522;42.696;23.494;2023-01-01T05:36:42;53707.06;;;-139.68;100.00
10940;BME280;5522;42.696;23.494;2023-01-01T05:39:10;53686.97;;;-139.68;100.00
10940;BME280;5522;42.696;23.494;2023-01-01T05:41:39;53713.09;;;-139.68;100.00
10940;BME280;5522;42.696;23.494;2023-01-01T05:44:07;53670.88;;;-139.68;100.00
10940;BME280;5522;42.696;23.494;2023-01-01T05:46:35;53721.13;;;-139.68;100.00
10940;BME280;5522;42.696;23.494;2023-01-01T05:49:02;53682.94;;;-139.68;100.00
10940;BME280;5522;42.696;23.494;2023-01-01T05:51:29;53723.13;;;-139.68;100.00
10940;BME280;5522;42.696;23.494;2023-01-01T05:53:57;53674.91;;;-139.68;100.00
10940;BME280;5522;42.696;23.494;2023-01-01T05:56:24;53723.13;;;-139.68;100.00
10940;BME280;5522;42.696;23.494;2023-01-01T05:58:53;53699.03;;;-139.68;100.00
10940;BME280;5522;42.696;23.494;2023-01-01T06:01:22;53693.00;;;-139.68;100.00
10940;BME280;5522;42.696;23.494;2023-01-01T06:03:50;53735.19;;;-139.68;100.00
10940;BME280;5522;42.696;23.494;2023-01-01T06:06:19;53650.78;;;-139.68;100.00
10940;BME280;5522;42.696;23.494;2023-01-01T06:08:49;53672.88;;;-139.68;100.00
10940;BME280;5522;42.696;23.494;2023-01-01T06:11:16;53678.91;;;-139.68;100.00
10940;BME280;5522;42.696;23.494;2023-01-01T06:13:43;53662.84;;;-139.68;100.00
10940;BME280;5522;42.696;23.494;2023-01-01T06:16:12;53699.03;;;-139.68;100.00
10940;BME280;5522;42.696;23.494;2023-01-01T06:18:39;53715.09;;;-139.68;100.00
10940;BME280;5522;42.696;23.494;2023-01-01T06:21:07;53703.03;;;-139.68;100.00
10940;BME280;5522;42.696;23.494;2023-01-01T06:23:36;53690.97;;;-139.68;100.00
10940;BME280;5522;42.696;23.494;2023-01-01T06:26:07;53703.03;;;-139.68;100.00
10940;BME280;5522;42.696;23.494;2023-01-01T06:28:36;53699.03;;;-139.68;100.00
10940;BME280;5522;42.696;23.494;2023-01-01T06:31:14;53729.16;;;-139.68;100.00
10940;BME280;5522;42.696;23.494;2023-01-01T06:33:43;53715.09;;;-139.68;100.00
10940;BME280;5522;42.696;23.494;2023-01-01T06:36:12;53731.19;;;-139.68;100.00
10940;BME280;5522;42.696;23.494;2023-01-01T06:38:41;53719.13;;;-139.68;100.00
10940;BME280;5522;42.696;23.494;2023-01-01T06:41:10;53666.84;;;-139.68;100.00
10940;BME280;5522;42.696;23.494;2023-01-01T06:43:41;53719.13;;;-139.68;100.00
10940;BME280;5522;42.696;23.494;2023-01-01T06:46:13;53721.13;;;-139.68;100.00
10940;BME280;5522;42.696;23.494;2023-01-01T06:48:44;53723.13;;;-139.68;100.00
10940;BME280;5522;42.696;23.494;2023-01-01T06:51:13;53711.09;;;-139.68;100.00
10940;BME280;5522;42.696;23.494;2023-01-01T06:53:40;53775.41;;;-139.68;100.00
10940;BME280;5522;42.696;23.494;2023-01-01T06:56:08;53711.09;;;-139.68;100.00
10940;BME280;5522;42.696;23.494;2023-01-01T06:58:35;53767.38;;;-139.68;100.00
10940;BME280;5522;42.696;23.494;2023-01-01T07:01:04;53751.28;;;-139.68;100.00
10940;BME280;5522;42.696;23.494;2023-01-01T07:03:31;53775.41;;;-139.68;100.00
10940;BME280;5522;42.696;23.494;2023-01-01T07:05:59;53783.44;;;-139.68;100.00
10940;BME280;5522;42.696;23.494;2023-01-01T07:08:30;53765.34;;;-139.68;100.00
10940;BME280;5522;42.696;23.494;2023-01-01T07:10:57;53773.41;;;-139.68;100.00
10940;BME280;5522;42.696;23.494;2023-01-01T07:13:24;53791.50;;;-139.68;100.00
10940;BME280;5522;42.696;23.494;2023-01-01T07:15:51;53785.47;;;-139.68;99.15
10940;BME280;5522;42.696;23.494;2023-01-01T07:18:18;53805.56;;;-139.68;99.29
10940;BME280;5522;42.696;23.494;2023-01-01T07:20:48;53731.19;;;-139.68;96.64
10940;BME280;5522;42.696;23.494;2023-01-01T07:23:16;53773.41;;;-139.68;98.09
10940;BME280;5522;42.696;23.494;2023-01-01T07:25:47;53743.25;;;-139.68;100.00
10940;BME280;5522;42.696;23.494;2023-01-01T07:28:17;53771.38;;;-139.68;100.00
10940;BME280;5522;42.696;23.494;2023-01-01T07:30:44;53759.31;;;-139.68;100.00
10940;BME280;5522;42.696;23.494;2023-01-01T07:33:12;53737.22;;;-139.68;100.00
10940;BME280;5522;42.696;23.494;2023-01-01T07:35:39;53755.31;;;-139.68;100.00
10940;BME280;5522;42.696;23.494;2023-01-01T07:56:11;53757.31;;;-139.68;100.00
10940;BME280;5522;42.696;23.494;2023-01-01T07:58:38;53759.31;;;-139.68;100.00
10940;BME280;5522;42.696;23.494;2023-01-01T08:01:05;53773.41;;;-139.68;100.00
10940;BME280;5522;42.696;23.494;2023-01-01T08:03:34;53767.38;;;-139.68;100.00
10940;BME280;5522;42.696;23.494;2023-01-01T08:06:06;53749.28;;;-139.68;100.00
10940;BME280;5522;42.696;23.494;2023-01-01T08:08:32;53719.13;;;-139.68;100.00
10940;BME280;5522;42.696;23.494;2023-01-01T08:10:59;53789.47;;;-139.68;100.00
10940;BME280;5522;42.696;23.494;2023-01-01T08:13:28;53777.41;;;-139.68;100.00
10940;BME280;5522;42.696;23.494;2023-01-01T08:15:56;53779.44;;;-139.68;100.00
10940;BME280;5522;42.696;23.494;2023-01-01T08:18:23;53775.41;;;-139.68;100.00
10940;BME280;5522;42.696;23.494;2023-01-01T08:20:52;53797.53;;;-139.68;100.00
10940;BME280;5522;42.696;23.494;2023-01-01T08:23:19;53755.31;;;-139.68;100.00
10940;BME280;5522;42.696;23.494;2023-01-01T08:25:48;53745.25;;;-139.68;100.00
10940;BME280;5522;42.696;23.494;2023-01-01T08:28:16;53781.44;;;-139.68;100.00
10940;BME280;5522;42.696;23.494;2023-01-01T08:30:44;53767.38;;;-139.68;100.00
10940;BME280;5522;42.696;23.494;2023-01-01T08:33:12;53777.41;;;-139.68;100.00
10940;BME280;5522;42.696;23.494;2023-01-01T08:35:40;53765.34;;;-139.68;99.93
10940;BME280;5522;42.696;23.494;2023-01-01T08:38:12;53807.56;;;-139.68;92.30
10940;BME280;5522;42.696;23.494;2023-01-01T08:40:39;53843.75;;;-139.68;85.99
10940;BME280;5522;42.696;23.494;2023-01-01T08:43:11;53815.63;;;-139.68;75.10
10940;BME280;5522;42.696;23.494;2023-01-01T08:45:37;53773.41;;;-139.68;71.60
10940;BME280;5522;42.696;23.494;2023-01-01T08:48:06;53815.63;;;-139.68;64.15
10940;BME280;5522;42.696;23.494;2023-01-01T08:50:33;53797.53;;;-139.68;59.76
10940;BME280;5522;42.696;23.494;2023-01-01T08:53:00;53827.69;;;-139.68;59.29
10940;BME280;5522;42.696;23.494;2023-01-01T08:55:27;53799.53;;;-139.68;53.19
10940;BME280;5522;42.696;23.494;2023-01-01T08:57:54;53811.59;;;-139.68;50.37
10940;BME280;5522;42.696;23.494;2023-01-01T09:00:22;53851.81;;;-139.68;51.15
10940;BME280;5522;42.696;23.494;2023-01-01T09:02:49;53851.81;;;-139.68;49.38
10940;BME280;5522;42.696;23.494;2023-01-01T09:05:20;53835.72;;;-139.68;46.66
10940;BME280;5522;42.696;23.494;2023-01-01T09:07:46;53829.69;;;-139.68;47.28
10940;BME280;5522;42.696;23.494;2023-01-01T09:10:13;53829.69;;;-139.68;48.15
10940;BME280;5522;42.696;23.494;2023-01-01T09:12:40;53837.72;;;-139.68;50.29
10940;BME280;5522;42.696;23.494;2023-01-01T09:15:13;53823.66;;;-139.68;48.48
10940;BME280;5522;42.696;23.494;2023-01-01T09:17:41;53849.78;;;-139.68;46.23
10940;BME280;5522;42.696;23.494;2023-01-01T09:20:08;53851.81;;;-139.68;47.64
10940;BME280;5522;42.696;23.494;2023-01-01T09:22:36;53841.75;;;-139.68;46.38
10940;BME280;5522;42.696;23.494;2023-01-01T09:25:04;53819.63;;;-139.68;44.46
10940;BME280;5522;42.696;23.494;2023-01-01T09:27:31;53875.94;;;-139.68;45.58
10940;BME280;5522;42.696;23.494;2023-01-01T09:29:58;53849.78;;;-139.68;43.91
10940;BME280;5522;42.696;23.494;2023-01-01T09:32:25;53898.03;;;-139.68;42.91
10940;BME280;5522;42.696;23.494;2023-01-01T09:34:52;53902.06;;;-139.68;42.85
10940;BME280;5522;42.696;23.494;2023-01-01T09:37:18;53875.94;;;-139.68;40.82
10940;BME280;5522;42.696;23.494;2023-01-01T09:39:47;53908.09;;;-139.68;39.94
10940;BME280;5522;42.696;23.494;2023-01-01T09:42:22;53865.88;;;-139.68;39.93
10940;BME280;5522;42.696;23.494;2023-01-01T09:47:41;53841.75;;;-139.68;39.09
10940;BME280;5522;42.696;23.494;2023-01-01T09:50:12;53869.91;;;-139.68;38.44
10940;BME280;5522;42.696;23.494;2023-01-01T09:52:45;53875.94;;;-139.68;37.99
10940;BME280;5522;42.696;23.494;2023-01-01T09:55:21;53883.97;;;-139.68;39.39
10940;BME280;5522;42.696;23.494;2023-01-01T09:57:50;53883.97;;;-139.68;37.69
10940;BME280;5522;42.696;23.494;2023-01-01T10:00:18;53904.06;;;-139.68;36.00
10940;BME280;5522;42.696;23.494;2023-01-01T10:03:02;53875.94;;;-139.68;35.18
10940;BME280;5522;42.696;23.494;2023-01-01T10:05:40;53904.06;;;-139.68;35.90
10940;BME280;5522;42.696;23.494;2023-01-01T10:08:15;53859.84;;;-139.68;37.84
10940;BME280;5522;42.696;23.494;2023-01-01T10:10:53;53908.09;;;-139.68;35.71
10940;BME280;5522;42.696;23.494;2023-01-01T10:13:26;53898.03;;;-139.68;35.18
10940;BME280;5522;42.696;23.494;2023-01-01T10:15:58;53879.94;;;-139.68;35.15
10940;BME280;5522;42.696;23.494;2023-01-01T10:18:29;53855.81;;;-139.68;34.93
10940;BME280;5522;42.696;23.494;2023-01-01T10:21:03;53898.03;;;-139.68;34.11
10940;BME280;5522;42.696;23.494;2023-01-01T10:23:35;53932.22;;;-139.68;34.23
10940;BME280;5522;42.696;23.494;2023-01-01T10:26:12;53877.94;;;-139.68;34.02
10940;BME280;5522;42.696;23.494;2023-01-01T10:28:47;53865.88;;;-139.68;34.14
10940;BME280;5522;42.696;23.494;2023-01-01T10:31:17;53912.13;;;-139.68;34.27
10940;BME280;5522;42.696;23.494;2023-01-01T10:33:45;53888.00;;;-139.68;34.35
10940;BME280;5522;42.696;23.494;2023-01-01T10:36:14;53904.06;;;-139.68;34.15
10940;BME280;5522;42.696;23.494;2023-01-01T10:38:42;53908.09;;;-139.68;35.33
10940;BME280;5522;42.696;23.494;2023-01-01T10:41:11;53896.03;;;-139.68;35.44
10940;BME280;5522;42.696;23.494;2023-01-01T10:43:39;53900.06;;;-139.68;34.35
10940;BME280;5522;42.696;23.494;2023-01-01T10:46:10;53902.06;;;-139.68;32.94
10940;BME280;5522;42.696;23.494;2023-01-01T10:48:38;53888.00;;;-139.68;33.29
10940;BME280;5522;42.696;23.494;2023-01-01T10:51:13;53918.16;;;-139.68;34.47
10940;BME280;5522;42.696;23.494;2023-01-01T10:53:42;53918.16;;;-139.68;33.99
10940;BME280;5522;42.696;23.494;2023-01-01T10:56:18;53920.16;;;-139.68;33.68
10940;BME280;5522;42.696;23.494;2023-01-01T10:58:47;53928.19;;;-139.68;33.44
10940;BME280;5522;42.696;23.494;2023-01-01T11:01:20;53912.13;;;-139.68;34.16
10940;BME280;5522;42.696;23.494;2023-01-01T11:03:58;53890.00;;;-139.68;34.48
10940;BME280;5522;42.696;23.494;2023-01-01T11:06:27;53906.06;;;-139.68;33.97
10940;BME280;5522;42.696;23.494;2023-01-01T11:08:59;53938.25;;;-139.68;33.08
10940;BME280;5522;42.696;23.494;2023-01-01T11:11:30;53926.19;;;-139.68;33.34
10940;BME280;5522;42.696;23.494;2023-01-01T11:13:59;53914.13;;;-139.68;33.46
10940;BME280;5522;42.696;23.494;2023-01-01T11:16:29;53916.13;;;-139.68;34.29
10940;BME280;5522;42.696;23.494;2023-01-01T11:19:03;53908.09;;;-139.68;35.09
10940;BME280;5522;42.696;23.494;2023-01-01T11:21:32;53966.38;;;-139.68;35.39
10940;BME280;5522;42.696;23.494;2023-01-01T11:24:19;53904.06;;;-139.68;35.84
10940;BME280;5522;42.696;23.494;2023-01-01T11:26:48;53904.06;;;-139.68;35.68
10940;BME280;5522;42.696;23.494;2023-01-01T11:29:19;53898.03;;;-139.68;35.46
10940;BME280;5522;42.696;23.494;2023-01-01T11:31:47;53916.13;;;-139.68;34.83
10940;BME280;5522;42.696;23.494;2023-01-01T11:34:26;53926.19;;;-139.68;36.06
10940;BME280;5522;42.696;23.494;2023-01-01T11:37:06;53900.06;;;-139.68;36.88
10940;BME280;5522;42.696;23.494;2023-01-01T11:39:34;53944.28;;;-139.68;36.65
10940;BME280;5522;42.696;23.494;2023-01-01T11:42:04;53936.22;;;-139.68;37.35
10940;BME280;5522;42.696;23.494;2023-01-01T11:44:36;53928.19;;;-139.68;37.40
10940;BME280;5522;42.696;23.494;2023-01-01T11:47:05;53934.22;;;-139.68;38.71
10940;BME280;5522;42.696;23.494;2023-01-01T11:49:33;53936.22;;;-139.68;39.21
10940;BME280;5522;42.696;23.494;2023-01-01T11:52:27;53902.06;;;-139.68;41.32
10940;BME280;5522;42.696;23.494;2023-01-01T11:55:00;53912.13;;;-139.68;45.52
10940;BME280;5522;42.696;23.494;2023-01-01T11:57:30;53879.94;;;-139.68;50.32
10940;BME280;5522;42.696;23.494;2023-01-01T12:00:01;53910.09;;;-139.68;55.01
10940;BME280;5522;42.696;23.494;2023-01-01T12:02:32;53910.09;;;-139.68;64.23
10940;BME280;5522;42.696;23.494;2023-01-01T12:05:08;53863.88;;;-139.68;71.98
10940;BME280;5522;42.696;23.494;2023-01-01T12:07:36;53920.16;;;-139.68;70.73
10940;BME280;5522;42.696;23.494;2023-01-01T12:10:11;53932.22;;;-139.68;77.06
10940;BME280;5522;42.696;23.494;2023-01-01T12:12:47;53920.16;;;-139.68;79.14
10940;BME280;5522;42.696;23.494;2023-01-01T12:15:21;53936.22;;;-139.68;78.72
10940;BME280;5522;42.696;23.494;2023-01-01T12:17:59;53944.28;;;-139.68;79.30
10940;BME280;5522;42.696;23.494;2023-01-01T12:20:29;53859.84;;;-139.68;79.59
10940;BME280;5522;42.696;23.494;2023-01-01T12:22:58;53894.03;;;-139.68;80.48
10940;BME280;5522;42.696;23.494;2023-01-01T12:25:32;53898.03;;;-139.68;81.47
10940;BME280;5522;42.696;23.494;2023-01-01T12:28:12;53926.19;;;-139.68;82.42
10940;BME280;5522;42.696;23.494;2023-01-01T12:30:50;53928.19;;;-139.68;82.77
10940;BME280;5522;42.696;23.494;2023-01-01T12:33:31;53867.88;;;-139.68;83.49
10940;BME280;5522;42.696;23.494;2023-01-01T12:36:09;53879.94;;;-139.68;84.83
10940;BME280;5522;42.696;23.494;2023-01-01T12:39:01;53908.09;;;-139.68;84.60
10940;BME280;5522;42.696;23.494;2023-01-01T12:41:38;53883.97;;;-139.68;84.97
10940;BME280;5522;42.696;23.494;2023-01-01T12:44:15;53912.13;;;-139.68;85.24
10940;BME280;5522;42.696;23.494;2023-01-01T12:46:49;53888.00;;;-139.68;84.61
10940;BME280;5522;42.696;23.494;2023-01-01T12:49:33;53906.06;;;-139.68;85.09
10940;BME280;5522;42.696;23.494;2023-01-01T12:52:13;53896.03;;;-139.68;85.70
10940;BME280;5522;42.696;23.494;2023-01-01T12:57:49;53900.06;;;-139.68;87.63
10940;BME280;5522;42.696;23.494;2023-01-01T13:00:19;53869.91;;;-139.68;87.72
10940;BME280;5522;42.696;23.494;2023-01-01T13:02:48;53948.31;;;-139.68;87.61
10940;BME280;5522;42.696;23.494;2023-01-01T13:05:19;53912.13;;;-139.68;89.88
10940;BME280;5522;42.696;23.494;2023-01-01T13:07:51;53908.09;;;-139.68;89.76
10940;BME280;5522;42.696;23.494;2023-01-01T13:10:24;53885.97;;;-139.68;90.89
10940;BME280;5522;42.696;23.494;2023-01-01T13:12:52;53926.19;;;-139.68;91.10
10940;BME280;5522;42.696;23.494;2023-01-01T13:18:33;53902.06;;;-139.68;91.00